createdAt,value
2018-06-10T00:01:39.611Z,94.00
2018-06-10T00:04:08.116Z,94.00
2018-06-10T00:06:36.700Z,94.10
2018-06-10T00:09:07.476Z,94.10
2018-06-10T00:11:40.655Z,94.20
2018-06-10T00:14:10.696Z,93.70
2018-06-10T00:16:39.534Z,92.90
2018-06-10T00:19:08.177Z,92.00
2018-06-10T00:21:37.143Z,91.80
2018-06-10T00:24:06.397Z,91.00
2018-06-10T00:26:36.378Z,90.90
2018-06-10T00:29:10.214Z,90.80
2018-06-10T00:31:39.213Z,90.40
2018-06-10T00:34:07.680Z,90.40
2018-06-10T00:36:36.161Z,90.30
2018-06-10T00:39:07.862Z,90.20
2018-06-10T00:41:37.121Z,90.20
2018-06-10T00:44:05.735Z,90.20
2018-06-10T00:46:34.232Z,90.10
2018-06-10T00:49:02.727Z,89.80
2018-06-10T00:51:31.275Z,90.00
2018-06-10T00:53:59.774Z,89.70
2018-06-10T00:56:39.471Z,89.20
2018-06-10T00:59:08.046Z,89.70
2018-06-10T01:01:36.627Z,89.10
2018-06-10T01:04:05.215Z,89.40
2018-06-10T01:06:33.794Z,89.70
2018-06-10T01:09:02.451Z,90.10
2018-06-10T01:11:30.939Z,89.80
2018-06-10T01:13:59.563Z,90.30
2018-06-10T01:16:28.107Z,90.80
2018-06-10T01:18:56.758Z,90.90
2018-06-10T01:21:25.650Z,91.10
2018-06-10T01:23:54.198Z,91.50
2018-06-10T01:26:27.971Z,91.90
2018-06-10T01:28:56.524Z,91.80
2018-06-10T01:31:25.140Z,91.80
2018-06-10T01:33:53.984Z,92.40
2018-06-10T01:36:22.606Z,91.90
2018-06-10T01:38:51.383Z,91.80
2018-06-10T01:41:20.160Z,91.70
2018-06-10T01:43:49.248Z,91.30
2018-06-10T01:46:18.151Z,91.20
2018-06-10T01:48:48.233Z,91.00
2018-06-10T01:51:17.050Z,90.90
2018-06-10T01:53:45.744Z,90.60
2018-06-10T01:56:14.619Z,90.40
2018-06-10T01:58:43.333Z,90.10
2018-06-10T02:01:11.846Z,90.30
2018-06-10T02:03:40.382Z,90.30
2018-06-10T02:06:08.879Z,90.00
2018-06-10T02:08:37.423Z,89.80
2018-06-10T02:11:05.866Z,90.00
2018-06-10T02:13:34.304Z,89.90
2018-06-10T02:16:02.783Z,89.30
2018-06-10T02:18:31.270Z,89.00
2018-06-10T02:20:59.794Z,88.90
2018-06-10T02:23:28.332Z,88.40
2018-06-10T02:25:56.889Z,88.90
2018-06-10T02:28:25.539Z,88.80
2018-06-10T02:30:54.112Z,88.80
2018-06-10T02:33:22.753Z,88.30
2018-06-10T02:35:51.829Z,88.10
2018-06-10T02:38:20.704Z,88.90
2018-06-10T02:40:49.522Z,87.50
2018-06-10T02:43:18.393Z,87.50
2018-06-10T02:45:47.380Z,87.20
2018-06-10T02:48:16.304Z,87.50
2018-06-10T02:50:44.906Z,87.10
2018-06-10T02:53:13.439Z,86.60
2018-06-10T02:55:41.873Z,86.10
2018-06-10T02:58:10.651Z,86.10
2018-06-10T03:00:39.232Z,86.30
2018-06-10T03:03:07.745Z,86.40
2018-06-10T03:05:36.232Z,86.70
2018-06-10T03:08:04.708Z,86.40
2018-06-10T03:10:38.716Z,86.20
2018-06-10T03:13:07.193Z,86.60
2018-06-10T03:15:35.655Z,86.60
2018-06-10T03:18:04.098Z,87.70
2018-06-10T03:20:32.744Z,86.70
2018-06-10T03:23:01.195Z,85.40
2018-06-10T03:25:29.684Z,86.00
2018-06-10T03:27:58.178Z,85.40
2018-06-10T03:30:26.638Z,85.30
2018-06-10T03:32:55.121Z,84.20
2018-06-10T03:35:23.882Z,84.00
2018-06-10T03:37:52.490Z,84.70
2018-06-10T03:40:21.403Z,85.30
2018-06-10T03:42:50.112Z,84.60
2018-06-10T03:45:19.059Z,84.70
2018-06-10T03:47:47.722Z,85.10
2018-06-10T03:50:16.608Z,84.40
2018-06-10T03:52:45.346Z,83.50
2018-06-10T03:55:13.864Z,83.80
2018-06-10T03:57:42.364Z,84.30
2018-06-10T04:02:39.252Z,84.50
2018-06-10T04:05:08.055Z,84.80
2018-06-10T04:07:38.579Z,84.90
2018-06-10T04:10:07.063Z,84.90
2018-06-10T04:12:35.583Z,85.40
2018-06-10T04:15:04.144Z,85.80
2018-06-10T04:17:32.629Z,86.30
2018-06-10T04:20:01.107Z,86.60
2018-06-10T04:22:29.495Z,86.70
2018-06-10T04:24:58.058Z,87.10
2018-06-10T04:27:26.738Z,86.80
2018-06-10T04:29:55.317Z,86.40
2018-06-10T04:32:24.352Z,85.20
2018-06-10T04:34:52.988Z,84.70
2018-06-10T04:39:56.515Z,83.40
2018-06-10T04:42:25.350Z,83.00
2018-06-10T04:44:53.992Z,82.40
2018-06-10T04:47:23.261Z,82.20
2018-06-10T04:49:52.059Z,82.40
2018-06-10T04:52:21.058Z,82.30
2018-06-10T04:54:50.229Z,82.30
2018-06-10T04:57:19.154Z,83.20
2018-06-10T05:02:16.787Z,82.50
2018-06-10T05:07:13.669Z,82.40
2018-06-10T05:09:42.204Z,82.60
2018-06-10T05:12:10.649Z,82.20
2018-06-10T05:14:39.430Z,82.10
2018-06-10T05:17:08.854Z,81.70
2018-06-10T05:19:37.382Z,81.60
2018-06-10T05:22:06.644Z,81.00
2018-06-10T05:24:36.232Z,80.00
2018-06-10T05:27:04.978Z,79.50
2018-06-10T05:29:33.671Z,79.90
2018-06-10T05:32:02.274Z,79.80
2018-06-10T05:34:30.818Z,80.20
2018-06-10T05:36:59.338Z,79.70
2018-06-10T05:39:27.956Z,78.80
2018-06-10T05:41:56.401Z,79.50
2018-06-10T05:44:25.071Z,78.90
2018-06-10T05:46:53.651Z,78.40
2018-06-10T05:49:22.501Z,78.10
2018-06-10T05:51:51.248Z,77.20
2018-06-10T05:54:20.324Z,76.40
2018-06-10T05:56:51.059Z,75.20
2018-06-10T05:59:19.679Z,74.30
2018-06-10T06:01:48.733Z,74.10
2018-06-10T06:04:17.827Z,73.10
2018-06-10T06:06:47.112Z,71.80
2018-06-10T06:09:16.906Z,71.50
2018-06-10T06:14:15.118Z,72.20
2018-06-10T06:16:43.912Z,72.10
2018-06-10T06:19:14.065Z,70.90
2018-06-10T06:21:52.244Z,71.90
2018-06-10T06:24:21.071Z,72.50
2018-06-10T06:26:50.059Z,73.30
2018-06-10T06:29:31.215Z,74.60
2018-06-10T06:32:05.682Z,75.50
2018-06-10T06:34:54.625Z,76.20
2018-06-10T06:37:23.977Z,77.00
2018-06-10T06:39:56.733Z,77.20
2018-06-10T06:42:30.973Z,77.30
2018-06-10T06:45:01.908Z,76.10
2018-06-10T06:47:32.048Z,75.50
2018-06-10T06:50:03.512Z,74.30
2018-06-10T06:52:35.973Z,75.00
2018-06-10T06:55:10.563Z,74.30
2018-06-10T06:57:41.273Z,73.00
2018-06-10T07:00:10.511Z,72.20
2018-06-10T07:02:39.408Z,72.00
2018-06-10T07:05:08.495Z,71.30
2018-06-10T07:07:37.165Z,70.60
2018-06-10T07:10:05.694Z,69.80
2018-06-10T07:12:34.203Z,69.70
2018-06-10T07:15:02.959Z,69.10
2018-06-10T07:17:33.372Z,68.80
2018-06-10T07:20:05.320Z,68.20
2018-06-10T07:22:34.530Z,67.00
2018-06-10T07:25:04.342Z,66.70
2018-06-10T07:27:35.579Z,66.10
2018-06-10T07:30:06.777Z,65.10
2018-06-10T07:32:59.088Z,63.80
2018-06-10T07:35:31.678Z,65.50
2018-06-10T07:38:01.584Z,66.00
2018-06-10T07:43:06.026Z,66.10
2018-06-10T07:45:36.981Z,64.60
2018-06-10T07:48:08.615Z,64.80
2018-06-10T07:50:37.792Z,63.00
2018-06-10T07:53:07.203Z,62.70
2018-06-10T07:55:39.799Z,64.10
2018-06-10T07:58:08.984Z,64.70
2018-06-10T08:00:37.444Z,67.60
2018-06-10T08:03:06.073Z,67.40
2018-06-10T08:05:37.698Z,68.40
2018-06-10T08:08:06.345Z,68.80
2018-06-10T08:10:37.722Z,68.50
2018-06-10T08:13:13.272Z,68.70
2018-06-10T08:15:43.510Z,67.20
2018-06-10T08:18:13.043Z,67.20
2018-06-10T08:20:41.561Z,67.10
2018-06-10T08:23:10.416Z,66.00
2018-06-10T08:25:39.053Z,64.40
2018-06-10T08:28:08.031Z,63.50
2018-06-10T08:30:36.642Z,64.00
2018-06-10T08:33:05.484Z,64.80
2018-06-10T08:35:34.155Z,64.10
2018-06-10T08:38:02.999Z,63.90
2018-06-10T08:40:32.723Z,63.30
2018-06-10T08:43:01.457Z,63.10
2018-06-10T08:45:30.378Z,62.90
2018-06-10T08:47:59.242Z,62.70
2018-06-10T08:50:27.994Z,62.80
2018-06-10T08:52:58.402Z,62.70
2018-06-10T08:55:30.290Z,61.90
2018-06-10T08:57:59.220Z,61.30
2018-06-10T09:00:27.754Z,60.40
2018-06-10T09:02:59.110Z,61.00
2018-06-10T09:05:27.646Z,60.00
2018-06-10T09:07:57.157Z,59.10
2018-06-10T09:10:26.526Z,58.00
2018-06-10T09:12:55.679Z,57.60
2018-06-10T09:15:25.091Z,56.70
2018-06-10T09:17:54.233Z,56.40
2018-06-10T09:20:23.800Z,57.10
2018-06-10T09:22:52.800Z,58.00
2018-06-10T09:25:21.947Z,57.80
2018-06-10T09:27:51.243Z,57.10
2018-06-10T09:30:20.947Z,58.60
2018-06-10T09:32:49.796Z,58.30
2018-06-10T09:35:18.590Z,57.20
2018-06-10T09:37:47.670Z,56.50
2018-06-10T09:40:17.023Z,56.20
2018-06-10T09:42:49.298Z,56.60
2018-06-10T09:45:18.418Z,56.80
2018-06-10T09:47:47.175Z,56.90
2018-06-10T09:50:17.042Z,56.40
2018-06-10T09:52:46.301Z,56.60
2018-06-10T09:55:15.874Z,55.80
2018-06-10T09:57:45.242Z,54.60
2018-06-10T10:00:21.308Z,53.40
2018-06-10T10:02:51.607Z,51.80
2018-06-10T10:05:26.964Z,52.00
2018-06-10T10:07:57.917Z,52.20
2018-06-10T10:10:26.939Z,52.90
2018-06-10T10:12:55.863Z,53.30
2018-06-10T10:15:24.848Z,52.50
2018-06-10T10:17:53.631Z,52.10
2018-06-10T10:20:26.144Z,53.60
2018-06-10T10:22:54.830Z,53.40
2018-06-10T10:25:24.115Z,53.40
2018-06-10T10:27:53.089Z,53.40
2018-06-10T10:30:22.215Z,53.70
2018-06-10T10:32:51.837Z,52.90
2018-06-10T10:35:21.727Z,51.70
2018-06-10T10:37:50.744Z,49.30
2018-06-10T10:40:20.636Z,49.50
2018-06-10T10:42:50.968Z,47.90
2018-06-10T10:45:20.093Z,46.20
2018-06-10T10:47:49.894Z,45.00
2018-06-10T10:50:19.103Z,43.30
2018-06-10T10:52:48.328Z,43.10
2018-06-10T10:55:17.400Z,42.60
2018-06-10T10:57:47.370Z,41.20
2018-06-10T11:00:16.087Z,40.40
2018-06-10T11:02:44.961Z,39.40
2018-06-10T11:05:13.535Z,39.10
2018-06-10T11:07:42.239Z,37.90
2018-06-10T11:10:10.884Z,36.70
2018-06-10T11:12:39.302Z,36.50
2018-06-10T11:15:07.779Z,35.40
2018-06-10T11:17:36.343Z,34.80
2018-06-10T11:20:04.919Z,35.20
2018-06-10T11:22:33.426Z,35.60
2018-06-10T11:25:01.976Z,35.40
2018-06-10T11:27:30.521Z,35.80
2018-06-10T11:29:59.155Z,35.00
2018-06-10T11:32:27.988Z,34.60
2018-06-10T11:34:57.491Z,34.50
2018-06-10T11:39:58.181Z,36.20
2018-06-10T11:42:27.179Z,34.60
2018-06-10T11:44:56.753Z,33.90
2018-06-10T11:47:25.637Z,33.10
2018-06-10T11:49:57.903Z,32.00
2018-06-10T11:52:26.719Z,31.90
2018-06-10T11:54:55.611Z,32.60
2018-06-10T11:57:27.736Z,32.10
2018-06-10T11:59:58.103Z,31.60
2018-06-10T12:02:26.530Z,30.80
2018-06-10T12:04:55.215Z,31.00
2018-06-10T12:07:24.563Z,32.70
2018-06-10T12:09:53.482Z,34.80
2018-06-10T12:12:23.176Z,36.60
2018-06-10T12:14:52.057Z,38.80
2018-06-10T12:17:21.490Z,40.40
2018-06-10T12:19:51.035Z,38.70
2018-06-10T12:22:25.539Z,36.90
2018-06-10T12:24:55.803Z,34.30
2018-06-10T12:27:25.325Z,32.70
2018-06-10T12:29:54.008Z,31.50
2018-06-10T12:32:23.533Z,30.50
2018-06-10T12:34:52.526Z,29.10
2018-06-10T12:37:24.773Z,28.20
2018-06-10T12:40:04.429Z,28.20
2018-06-10T12:42:33.165Z,27.80
2018-06-10T12:45:04.537Z,26.00
2018-06-10T12:47:33.456Z,25.70
2018-06-10T12:50:02.387Z,25.80
2018-06-10T12:52:30.939Z,26.60
2018-06-10T12:55:00.177Z,26.60
2018-06-10T12:57:29.003Z,26.60
2018-06-10T12:59:57.524Z,25.80
2018-06-10T13:02:28.332Z,25.70
2018-06-10T13:04:57.047Z,26.20
2018-06-10T13:07:26.048Z,26.60
2018-06-10T13:09:54.922Z,26.40
2018-06-10T13:12:24.272Z,26.40
2018-06-10T13:14:53.075Z,25.70
2018-06-10T13:17:22.295Z,25.30
2018-06-10T13:19:50.867Z,24.40
2018-06-10T13:22:19.588Z,24.60
2018-06-10T13:24:48.230Z,24.60
2018-06-10T13:27:19.173Z,25.60
2018-06-10T13:29:48.918Z,27.30
2018-06-10T13:32:23.249Z,29.30
2018-06-10T13:34:52.028Z,31.20
2018-06-10T13:39:49.233Z,32.30
2018-06-10T13:42:18.419Z,33.50
2018-06-10T13:44:47.084Z,34.30
2018-06-10T13:47:16.464Z,34.80
2018-06-10T13:49:45.621Z,35.40
2018-06-10T13:52:17.061Z,35.30
2018-06-10T13:54:47.965Z,36.00
2018-06-10T13:57:18.911Z,36.90
2018-06-10T13:59:50.116Z,37.30
2018-06-10T14:02:27.272Z,39.00
2018-06-10T14:04:56.305Z,40.40
2018-06-10T14:07:24.968Z,40.10
2018-06-10T14:09:53.602Z,39.20
2018-06-10T14:12:22.990Z,39.70
2018-06-10T14:14:51.974Z,39.90
2018-06-10T14:17:21.423Z,38.80
2018-06-10T14:19:53.059Z,38.10
2018-06-10T14:22:23.647Z,37.00
2018-06-10T14:24:52.634Z,37.40
2018-06-10T14:27:21.810Z,37.50
2018-06-10T14:29:50.381Z,37.40
2018-06-10T14:32:21.669Z,37.40
2018-06-10T14:34:52.299Z,37.50
2018-06-10T14:37:22.703Z,37.30
2018-06-10T14:39:51.815Z,35.70
2018-06-10T14:42:20.850Z,34.20
2018-06-10T14:44:50.340Z,33.00
2018-06-10T14:47:28.315Z,33.20
2018-06-10T14:51:28.150Z,31.30
2018-06-10T14:53:58.995Z,29.70
2018-06-10T14:56:27.778Z,27.70
2018-06-10T14:58:56.367Z,26.00
2018-06-10T15:01:25.193Z,24.70
2018-06-10T15:03:53.992Z,23.20
2018-06-10T15:06:23.239Z,22.30
2018-06-10T15:08:58.715Z,23.40
2018-06-10T15:11:29.709Z,23.10
2018-06-10T15:13:59.249Z,22.90
2018-06-10T15:16:29.233Z,23.00
2018-06-10T15:18:57.892Z,22.70
2018-06-10T15:21:26.675Z,23.30
2018-06-10T15:23:55.775Z,24.00
2018-06-10T15:26:25.341Z,23.30
2018-06-10T15:28:54.143Z,22.30
2018-06-10T15:31:22.738Z,21.40
2018-06-10T15:33:51.412Z,20.40
2018-06-10T15:38:48.434Z,19.80
2018-06-10T15:41:17.396Z,19.30
2018-06-10T15:43:47.433Z,19.40
2018-06-10T15:46:16.093Z,19.90
2018-06-10T15:48:50.265Z,19.80
2018-06-10T15:51:19.357Z,19.80
2018-06-10T15:53:48.548Z,20.00
2018-06-10T15:56:18.389Z,21.00
2018-06-10T15:58:47.458Z,22.40
2018-06-10T16:01:17.268Z,23.30
2018-06-10T16:03:48.456Z,24.40
2018-06-10T16:06:18.334Z,25.10
2018-06-10T16:08:50.727Z,26.40
2018-06-10T16:11:20.329Z,27.50
2018-06-10T16:13:53.326Z,28.60
2018-06-10T16:16:23.286Z,29.40
2018-06-10T16:18:56.152Z,30.20
2018-06-10T16:21:25.196Z,31.50
2018-06-10T16:23:54.182Z,32.90
2018-06-10T16:26:24.815Z,34.20
2018-06-10T16:28:53.298Z,35.30
2018-06-10T16:31:24.219Z,36.10
2018-06-10T16:33:53.588Z,37.00
2018-06-10T16:38:58.192Z,38.50
2018-06-10T16:41:27.795Z,40.40
2018-06-10T16:43:56.359Z,42.20
2018-06-10T16:46:26.213Z,44.20
2018-06-10T16:48:54.898Z,44.90
2018-06-10T16:51:23.257Z,46.30
2018-06-10T16:53:52.267Z,49.10
2018-06-10T16:56:20.663Z,49.70
2018-06-10T16:58:49.089Z,51.00
2018-06-10T17:01:17.505Z,51.70
2018-06-10T17:03:45.941Z,52.60
2018-06-10T17:06:14.328Z,55.40
2018-06-10T17:08:43.696Z,56.60
2018-06-10T17:11:12.050Z,59.30
2018-06-10T17:13:40.796Z,59.70
2018-06-10T17:16:09.250Z,59.20
2018-06-10T17:18:37.639Z,60.60
2018-06-10T17:21:06.145Z,64.20
2018-06-10T17:23:34.547Z,65.20
2018-06-10T17:26:03.354Z,68.40
2018-06-10T17:28:31.858Z,69.20
2018-06-10T17:31:00.345Z,70.80
2018-06-10T17:33:28.728Z,73.70
2018-06-10T17:35:57.344Z,75.90
2018-06-10T17:38:25.693Z,75.10
2018-06-10T17:40:54.101Z,77.80
2018-06-10T17:43:22.458Z,78.80
2018-06-10T17:45:50.998Z,78.10
2018-06-10T17:48:19.567Z,77.20
2018-06-10T17:50:47.992Z,79.60
2018-06-10T17:53:16.450Z,78.90
2018-06-10T17:55:44.869Z,79.90
2018-06-10T17:58:13.245Z,80.90
2018-06-10T18:00:41.625Z,83.10
2018-06-10T18:03:09.972Z,84.70
2018-06-10T18:05:38.402Z,83.50
2018-06-10T18:08:06.782Z,84.00
2018-06-10T18:10:35.146Z,85.40
2018-06-10T18:13:03.629Z,85.50
2018-06-10T18:15:32.002Z,86.90
2018-06-10T18:18:00.335Z,87.50
2018-06-10T18:20:28.742Z,87.00
2018-06-10T18:22:57.105Z,88.00
2018-06-10T18:25:25.523Z,85.50
2018-06-10T18:27:53.997Z,87.90
2018-06-10T18:30:22.415Z,86.70
2018-06-10T18:32:50.809Z,87.50
2018-06-10T18:35:19.212Z,87.30
2018-06-10T18:37:47.659Z,87.80
2018-06-10T18:40:16.104Z,88.30
2018-06-10T18:42:44.427Z,90.20
2018-06-10T18:45:14.063Z,88.90
2018-06-10T18:50:10.482Z,89.40
2018-06-10T18:52:38.883Z,88.40
2018-06-10T18:55:07.259Z,88.10
2018-06-10T18:57:35.720Z,87.80
2018-06-10T19:00:04.628Z,89.20
2018-06-10T19:02:32.980Z,88.70
2018-06-10T19:05:01.335Z,88.60
2018-06-10T19:07:29.815Z,88.20
2018-06-10T19:09:58.205Z,87.30
2018-06-10T19:12:26.591Z,86.80
2018-06-10T19:14:54.941Z,87.60
2018-06-10T19:17:23.322Z,88.00
2018-06-10T19:19:51.744Z,88.40
2018-06-10T19:24:48.182Z,86.20
2018-06-10T19:27:17.081Z,86.60
2018-06-10T19:29:45.500Z,85.00
2018-06-10T19:32:14.058Z,84.70
2018-06-10T19:34:43.095Z,84.20
2018-06-10T19:37:13.262Z,82.60
2018-06-10T19:39:41.680Z,82.00
2018-06-10T19:42:10.116Z,81.10
2018-06-10T19:44:38.449Z,79.90
2018-06-10T19:47:07.090Z,80.00
2018-06-10T19:49:35.692Z,80.60
2018-06-10T19:52:04.245Z,80.20
2018-06-10T19:54:32.580Z,80.30
2018-06-10T19:57:01.002Z,79.60
2018-06-10T19:59:29.406Z,79.40
2018-06-10T20:01:57.795Z,79.50
2018-06-10T20:04:26.150Z,79.30
2018-06-10T20:06:54.527Z,78.70
2018-06-10T20:09:22.891Z,78.00
2018-06-10T20:11:51.266Z,78.70
2018-06-10T20:14:20.202Z,79.50
2018-06-10T20:16:48.558Z,80.00
2018-06-10T20:19:16.926Z,80.50
2018-06-10T20:21:46.095Z,81.00
2018-06-10T20:24:14.417Z,82.00
2018-06-10T20:26:42.773Z,83.10
2018-06-10T20:29:11.693Z,83.00
2018-06-10T20:31:40.104Z,83.60
2018-06-10T20:34:08.464Z,83.60
2018-06-10T20:36:36.933Z,83.80
2018-06-10T20:39:07.642Z,84.00
2018-06-10T20:41:37.043Z,84.20
2018-06-10T20:44:05.530Z,85.40
2018-06-10T20:46:33.963Z,85.30
2018-06-10T20:51:31.783Z,87.20
2018-06-10T20:54:00.132Z,87.90
2018-06-10T20:56:28.543Z,88.10
2018-06-10T20:58:56.927Z,88.10
2018-06-10T21:01:26.763Z,88.60
2018-06-10T21:03:55.097Z,89.00
2018-06-10T21:06:23.493Z,88.70
2018-06-10T21:08:51.887Z,87.80
2018-06-10T21:11:20.249Z,88.50
2018-06-10T21:13:48.635Z,89.30
2018-06-10T21:16:17.043Z,89.70
2018-06-10T21:18:46.767Z,90.00
2018-06-10T21:21:15.262Z,90.20
2018-06-10T21:23:43.616Z,90.70
2018-06-10T21:26:12.004Z,90.80
2018-06-10T21:28:40.399Z,90.70
2018-06-10T21:31:08.758Z,90.50
2018-06-10T21:33:37.192Z,90.30
2018-06-10T21:36:05.532Z,90.40
2018-06-10T21:38:33.889Z,90.30
2018-06-10T21:41:03.227Z,90.00
2018-06-10T21:43:31.744Z,90.80
2018-06-10T21:46:00.148Z,90.00
2018-06-10T21:48:28.717Z,90.70
2018-06-10T21:50:57.158Z,90.80
2018-06-10T21:53:25.558Z,91.50
2018-06-10T21:55:53.909Z,93.80
2018-06-10T21:58:22.596Z,96.20
2018-06-10T22:00:51.040Z,96.90
2018-06-10T22:03:19.547Z,97.80
2018-06-10T22:05:48.927Z,98.20
2018-06-10T22:08:17.616Z,99.60
2018-06-10T22:10:46.078Z,99.90
2018-06-10T22:13:14.961Z,99.90
2018-06-10T22:15:43.294Z,99.90
2018-06-10T22:18:12.303Z,99.90
2018-06-10T22:20:40.655Z,99.90
2018-06-10T22:23:09.034Z,99.90
2018-06-10T22:25:38.268Z,99.90
2018-06-10T22:28:06.702Z,99.90
2018-06-10T22:30:35.713Z,99.90
2018-06-10T22:33:04.080Z,99.90
2018-06-10T22:35:32.894Z,99.90
2018-06-10T22:38:02.141Z,99.90
2018-06-10T22:40:30.599Z,99.90
2018-06-10T22:42:59.507Z,99.90
2018-06-10T22:45:27.862Z,99.90
2018-06-10T22:47:56.588Z,99.90
2018-06-10T22:50:24.908Z,99.90
2018-06-10T22:53:07.492Z,99.90
2018-06-10T22:55:36.008Z,99.90
2018-06-10T22:58:04.371Z,99.90
2018-06-10T23:00:32.754Z,99.90
2018-06-10T23:03:01.442Z,99.90
2018-06-10T23:05:29.922Z,99.90
2018-06-10T23:07:58.605Z,99.90
2018-06-10T23:10:26.947Z,99.90
2018-06-10T23:12:56.279Z,99.90
2018-06-10T23:15:24.732Z,99.90
2018-06-10T23:17:53.234Z,99.90
2018-06-10T23:20:21.786Z,99.90
2018-06-10T23:22:50.111Z,99.90
2018-06-10T23:25:20.125Z,99.90
2018-06-10T23:27:48.721Z,99.90
2018-06-10T23:30:17.141Z,99.90
2018-06-10T23:32:45.475Z,99.90
2018-06-10T23:35:13.806Z,99.90
2018-06-10T23:37:42.145Z,99.90
2018-06-10T23:40:10.694Z,99.90
2018-06-10T23:42:39.164Z,99.90
2018-06-10T23:45:07.621Z,99.90
2018-06-10T23:47:35.990Z,99.90
2018-06-10T23:50:04.349Z,99.90
2018-06-10T23:52:32.826Z,99.90
2018-06-10T23:55:01.210Z,99.90
2018-06-10T23:57:29.569Z,99.90
2018-06-10T23:59:58.012Z,99.90
